Time;durP1;ratioP1;P1;durP2;ratioP2;P2;SDS_P1;SDS_P2;PMS_P1;PMS_P2;Temp;Humidity;BMP_temperature;BMP_pressure;BME280_temperature;BME280_humidity;BME280_pressure;Samples;Min_cycle;Max_cycle;Signal;HPM_P1;HPM_P2
2022/10/14 00:00:30;;;;;;;0.68;0.68;;;;;;;11.61;87.82;101599.25;2099820;28;20052;-69
2022/10/14 00:01:33;;;;;;;0.57;0.57;;;;;;;11.60;87.50;101597.69;2092179;28;20063;-69
2022/10/14 00:02:36;;;;;;;0.60;0.60;;;;;;;11.62;87.48;101606.28;2096720;28;20055;-70
2022/10/14 00:03:40;;;;;;;0.70;0.70;;;;;;;11.60;87.89;101603.91;2105213;28;20052;-69
2022/10/14 00:04:42;;;;;;;0.60;0.60;;;;;;;11.58;87.89;101595.31;2099194;28;20495;-69
2022/10/14 00:05:45;;;;;;;0.73;0.73;;;;;;;11.57;87.42;101601.03;2102217;28;20060;-70
2022/10/14 00:06:49;;;;;;;0.70;0.70;;;;;;;11.58;87.13;101608.03;2104471;28;20063;-69
2022/10/14 00:07:51;;;;;;;0.70;0.70;;;;;;;11.54;86.79;101599.00;2103916;28;20056;-69
2022/10/14 00:08:55;;;;;;;0.75;0.75;;;;;;;11.49;86.59;101610.00;2103017;28;20067;-70
2022/10/14 00:09:57;;;;;;;0.60;0.60;;;;;;;11.43;86.57;101595.88;2098545;28;20053;-69
2022/10/14 00:11:04;;;;;;;0.70;0.70;;;;;;;11.41;86.62;101603.53;2091194;28;20052;-69
2022/10/14 00:12:06;;;;;;;0.82;0.70;;;;;;;11.38;86.49;101600.69;2093349;28;20059;-69
2022/10/14 00:13:09;;;;;;;0.90;0.80;;;;;;;11.37;86.41;101599.13;2100273;28;20067;-69
2022/10/14 00:14:14;;;;;;;0.60;0.60;;;;;;;11.33;86.42;101603.56;2097914;28;20083;-69
2022/10/14 00:15:17;;;;;;;1.00;0.90;;;;;;;11.28;86.58;101595.63;2092906;28;20056;-68
2022/10/14 00:16:22;;;;;;;1.05;0.90;;;;;;;11.23;86.55;101601.22;2096302;28;20536;-69
2022/10/14 00:17:25;;;;;;;0.70;0.65;;;;;;;11.19;86.67;101603.00;2099266;28;20143;-69
2022/10/14 00:18:30;;;;;;;1.23;1.00;;;;;;;11.19;86.69;101603.00;2098458;28;20517;-69
2022/10/14 00:19:33;;;;;;;1.10;0.90;;;;;;;11.13;87.17;101598.91;2101333;28;20051;-69
2022/10/14 00:20:35;;;;;;;1.20;0.93;;;;;;;11.12;86.89;101600.81;2104871;28;20078;-69
2022/10/14 00:21:41;;;;;;;1.05;0.90;;;;;;;11.10;86.95;101599.56;2095857;28;20068;-68
2022/10/14 00:22:43;;;;;;;1.08;0.95;;;;;;;11.08;87.04;101601.78;2094414;28;20106;-69
2022/10/14 00:23:47;;;;;;;0.80;0.70;;;;;;;11.04;87.09;101604.34;2097829;28;20457;-69
2022/10/14 00:24:49;;;;;;;0.60;0.60;;;;;;;11.03;87.50;101599.25;2097947;28;20055;-68
2022/10/14 00:25:52;;;;;;;0.70;0.70;;;;;;;11.04;87.36;101593.53;2090835;28;20057;-68
2022/10/14 00:26:55;;;;;;;1.00;0.80;;;;;;;11.01;87.07;101596.88;2092890;28;20049;-69
2022/10/14 00:28:02;;;;;;;0.80;0.80;;;;;;;11.03;87.35;101596.56;2097545;28;20519;-69
2022/10/14 00:29:06;;;;;;;0.70;0.70;;;;;;;10.99;87.24;101606.44;2097767;28;20515;-69
2022/10/14 00:30:10;;;;;;;0.60;0.60;;;;;;;10.96;87.71;101593.56;2091522;28;20051;-69
2022/10/14 00:31:12;;;;;;;1.00;0.80;;;;;;;10.97;87.86;101595.16;2089313;28;20424;-68
2022/10/14 00:32:17;;;;;;;0.60;0.60;;;;;;;10.97;87.66;101595.16;2101023;28;20101;-68
2022/10/14 00:33:19;;;;;;;0.70;0.70;;;;;;;10.96;88.02;101588.97;2086238;28;20053;-68
2022/10/14 00:34:24;;;;;;;0.50;0.50;;;;;;;10.99;88.33;101592.94;2087471;28;20071;-69
2022/10/14 00:35:28;;;;;;;0.77;0.70;;;;;;;11.00;88.32;101595.31;2103072;28;20098;-68
2022/10/14 00:36:31;;;;;;;0.50;0.50;;;;;;;11.04;88.38;101595.44;2099456;28;20055;-68
2022/10/14 00:37:32;;;;;;;0.60;0.60;;;;;;;11.06;88.30;101598.63;2097919;28;20052;-68
2022/10/14 00:38:36;;;;;;;0.50;0.50;;;;;;;11.07;88.30;101600.22;2102208;28;20047;-68
2022/10/14 00:39:38;;;;;;;0.50;0.50;;;;;;;11.09;88.71;101600.66;2103758;28;20496;-69
2022/10/14 00:40:40;;;;;;;0.50;0.50;;;;;;;11.11;88.31;101601.13;2087926;28;20053;-68
2022/10/14 00:41:44;;;;;;;0.60;0.60;;;;;;;11.12;88.46;101598.13;2078908;28;20116;-68
2022/10/14 00:42:47;;;;;;;0.60;0.60;;;;;;;11.13;88.46;101598.91;2085080;28;20063;-69
2022/10/14 00:43:56;;;;;;;0.55;0.55;;;;;;;11.14;88.22;101600.50;2095632;28;20052;-69
2022/10/14 00:45:06;;;;;;;0.55;0.55;;;;;;;11.15;88.18;101596.66;2097165;28;20161;-69
2022/10/14 00:46:10;;;;;;;0.60;0.60;;;;;;;11.16;88.42;101599.03;2096247;28;20090;-69
2022/10/14 00:47:13;;;;;;;0.70;0.70;;;;;;;11.17;87.94;101599.84;2096409;28;20122;-70
2022/10/14 00:48:16;;;;;;;0.60;0.60;;;;;;;11.15;87.78;101599.34;2090046;28;20053;-69
2022/10/14 00:49:22;;;;;;;0.80;0.70;;;;;;;11.13;87.38;101601.63;2083885;28;20041;-69
2022/10/14 00:50:26;;;;;;;0.70;0.70;;;;;;;11.08;87.22;101599.09;2090613;28;20053;-70
2022/10/14 00:51:28;;;;;;;0.60;0.60;;;;;;;11.05;87.22;101595.09;2097782;28;20060;-70
2022/10/14 00:52:30;;;;;;;0.60;0.60;;;;;;;11.02;87.26;101593.06;2099208;28;20056;-68
2022/10/14 00:53:34;;;;;;;0.82;0.70;;;;;;;10.98;86.99;101591.34;2091188;28;20079;-68
2022/10/14 00:54:40;;;;;;;0.63;0.63;;;;;;;10.93;87.12;101588.81;2089531;28;20041;-68
2022/10/14 00:55:43;;;;;;;0.90;0.77;;;;;;;10.88;87.33;101589.00;2089300;28;20092;-68
2022/10/14 00:56:46;;;;;;;1.00;0.80;;;;;;;10.87;87.27;101592.81;2092633;28;20064;-69
2022/10/14 00:57:51;;;;;;;0.70;0.70;;;;;;;10.83;87.91;101589.97;2097580;28;20052;-69
2022/10/14 00:59:01;;;;;;;0.70;0.68;;;;;;;10.79;87.50;101580.94;2101291;28;20459;-68
2022/10/14 01:00:10;;;;;;;1.00;0.80;;;;;;;10.75;87.65;101590.00;2102548;28;20048;-69
2022/10/14 01:04:55;;;;;;;1.27;0.90;;;;;;;10.52;88.00;101579.44;2070307;28;20065;-70
2022/10/14 01:06:46;;;;;;;0.90;0.80;;;;;;;10.47;88.55;101571.50;2077812;28;20042;-69
2022/10/14 01:08:22;;;;;;;1.20;0.90;;;;;;;10.50;88.48;101576.25;2070729;28;20042;-71
2022/10/14 01:09:30;;;;;;;0.80;0.70;;;;;;;10.54;88.42;101571.78;2072478;28;20053;-71
2022/10/14 01:10:41;;;;;;;0.90;0.80;;;;;;;10.55;89.01;101567.97;2080627;28;20416;-70
2022/10/14 01:11:54;;;;;;;1.00;0.82;;;;;;;10.56;88.26;101569.56;2080575;28;20076;-71
2022/10/14 01:13:29;;;;;;;0.98;0.80;;;;;;;10.50;88.76;101564.66;2078950;28;20052;-71
2022/10/14 01:14:40;;;;;;;1.42;1.10;;;;;;;10.52;88.60;101567.84;2078343;28;20480;-71
2022/10/14 01:15:51;;;;;;;1.55;1.10;;;;;;;10.52;88.82;101565.94;2078738;28;20591;-71
2022/10/14 01:16:59;;;;;;;1.40;1.10;;;;;;;10.52;88.95;101568.63;2078572;28;20058;-71
2022/10/14 01:18:18;;;;;;;1.08;0.90;;;;;;;10.51;89.35;101564.31;2078657;28;20056;-71
2022/10/14 01:19:48;;;;;;;0.80;0.80;;;;;;;10.50;89.91;101570.84;2070451;28;20054;-71
2022/10/14 01:21:03;;;;;;;1.10;1.00;;;;;;;10.54;89.45;101563.69;2074933;28;20096;-71
2022/10/14 01:22:16;;;;;;;0.70;0.70;;;;;;;10.56;89.72;101560.66;2077794;28;20111;-72
2022/10/14 01:24:01;;;;;;;1.02;0.80;;;;;;;10.59;89.37;101568.91;2077487;28;20053;-71
2022/10/14 01:25:16;;;;;;;0.70;0.70;;;;;;;10.62;89.52;101561.28;2069802;28;20439;-71
2022/10/14 01:26:48;;;;;;;0.95;0.73;;;;;;;10.68;89.56;101565.41;2056393;28;20054;-71
2022/10/14 01:28:06;;;;;;;0.70;0.70;;;;;;;10.70;89.73;101563.97;2070072;28;20132;-72
2022/10/14 01:29:21;;;;;;;0.60;0.60;;;;;;;10.72;89.85;101561.72;2077233;28;20049;-71
2022/10/14 01:30:30;;;;;;;1.00;0.88;;;;;;;10.77;89.48;101563.44;2077340;28;20053;-71
2022/10/14 01:31:36;;;;;;;0.60;0.60;;;;;;;10.81;89.18;101564.41;2079065;28;20152;-72
2022/10/14 01:32:53;;;;;;;0.80;0.75;;;;;;;10.82;89.32;101560.56;2079678;28;20064;-72
2022/10/14 01:34:01;;;;;;;1.00;0.90;;;;;;;10.84;89.00;101558.34;2078709;28;20061;-72
2022/10/14 01:35:14;;;;;;;1.20;1.00;;;;;;;10.85;88.99;101559.91;2071236;28;20077;-72
2022/10/14 01:36:23;;;;;;;0.95;0.85;;;;;;;10.83;88.54;101551.38;2074182;28;20076;-71
2022/10/14 01:37:30;;;;;;;1.35;0.90;;;;;;;10.84;89.09;101551.03;2077985;28;20150;-71
2022/10/14 01:38:37;;;;;;;1.00;0.80;;;;;;;10.85;89.02;101549.13;2068822;28;20088;-71
2022/10/14 01:39:47;;;;;;;1.15;0.90;;;;;;;10.86;89.33;101550.72;2061796;28;20556;-71
2022/10/14 01:40:55;;;;;;;1.38;1.02;;;;;;;10.85;89.41;101541.81;2070837;28;20212;-71
2022/10/14 01:42:06;;;;;;;1.35;1.02;;;;;;;10.84;88.55;101544.84;2079660;28;20057;-71
2022/10/14 01:43:12;;;;;;;0.80;0.70;;;;;;;10.84;89.25;101548.34;2078232;28;20536;-71
2022/10/14 01:44:18;;;;;;;1.10;0.90;;;;;;;10.85;88.73;101539.13;2076284;28;20527;-71
2022/10/14 01:45:22;;;;;;;1.10;0.88;;;;;;;10.85;89.25;101538.31;2078225;28;20077;-71
2022/10/14 01:46:29;;;;;;;1.42;1.05;;;;;;;10.84;88.72;101536.75;2078864;28;20493;-70
2022/10/14 01:47:40;;;;;;;1.40;1.10;;;;;;;10.80;88.77;101541.22;2079490;28;20069;-70
2022/10/14 01:48:50;;;;;;;0.93;0.80;;;;;;;10.79;88.97;101540.41;2079688;28;20448;-71
2022/10/14 01:49:55;;;;;;;;;;;;;;;10.61;89.35;101538.13;2072057;28;20050;-71
2022/10/14 01:51:02;;;;;;;1.10;0.73;;;;;;;10.69;89.17;101534.59;2071954;28;20513;-72
2022/10/14 01:52:09;;;;;;;1.27;0.90;;;;;;;10.73;89.54;101538.22;2078341;28;20054;-71
2022/10/14 01:53:20;;;;;;;1.15;0.90;;;;;;;10.70;88.97;101531.56;2076566;28;20140;-72
2022/10/14 01:54:29;;;;;;;1.27;0.98;;;;;;;10.71;89.17;101532.34;2078566;28;20052;-72
2022/10/14 01:55:38;;;;;;;1.25;0.90;;;;;;;10.69;89.57;101542.69;2079529;28;20053;-72
2022/10/14 01:56:45;;;;;;;1.35;0.98;;;;;;;10.70;88.96;101541.56;2069603;28;20065;-72
2022/10/14 01:57:51;;;;;;;1.25;1.00;;;;;;;10.65;89.32;101539.03;2055377;28;20057;-72
2022/10/14 01:58:55;;;;;;;1.02;0.80;;;;;;;10.61;89.58;101541.59;2064087;28;20452;-72
2022/10/14 01:59:59;;;;;;;1.50;1.13;;;;;;;10.55;89.77;101524.78;2070555;28;20088;-72
2022/10/14 02:01:02;;;;;;;1.25;1.02;;;;;;;10.55;89.13;101523.97;2070520;28;20499;-72
2022/10/14 02:02:07;;;;;;;1.35;1.00;;;;;;;10.53;90.15;101532.41;2079302;28;20092;-72
2022/10/14 02:03:12;;;;;;;1.10;0.90;;;;;;;10.53;89.53;101524.31;2077431;28;20081;-71
2022/10/14 02:04:16;;;;;;;1.27;1.00;;;;;;;10.52;89.98;101517.34;2072524;28;20092;-72
2022/10/14 02:05:35;;;;;;;1.50;1.10;;;;;;;10.52;90.27;101522.72;2062873;28;20061;-72
2022/10/14 02:06:43;;;;;;;1.27;1.10;;;;;;;10.51;90.69;101523.84;2062763;28;20058;-72
2022/10/14 02:07:48;;;;;;;1.60;1.27;;;;;;;10.50;90.14;101519.56;2061556;28;20521;-72
2022/10/14 02:09:16;;;;;;;1.60;1.23;;;;;;;10.42;90.48;101523.06;2070227;28;20053;-72
2022/10/14 02:10:36;;;;;;;1.60;1.20;;;;;;;10.42;90.51;101530.38;2070452;28;20046;-72
2022/10/14 02:11:49;;;;;;;1.35;1.13;;;;;;;10.40;91.39;101528.00;2064270;28;20057;-71
2022/10/14 02:13:06;;;;;;;1.05;0.95;;;;;;;10.40;90.41;101522.59;2070217;28;20057;-70
2022/10/14 02:14:20;;;;;;;1.40;1.15;;;;;;;10.38;90.63;101524.84;2062260;28;20828;-71
2022/10/14 02:15:30;;;;;;;1.70;1.40;;;;;;;10.37;91.73;101523.25;2065086;28;20054;-71
2022/10/14 02:16:38;;;;;;;1.38;1.10;;;;;;;10.36;90.71;101521.66;2079515;28;20595;-71
2022/10/14 02:17:49;;;;;;;0.90;0.90;;;;;;;10.35;91.45;101520.06;2069364;28;20050;-70
2022/10/14 02:19:01;;;;;;;1.60;1.30;;;;;;;10.36;91.23;101518.97;2071207;28;20513;-70
2022/10/14 02:20:13;;;;;;;1.05;0.90;;;;;;;10.36;91.84;101521.66;2068113;28;20054;-70
2022/10/14 02:21:24;;;;;;;0.98;0.85;;;;;;;10.35;91.79;101520.06;2069994;28;20529;-70
2022/10/14 02:22:32;;;;;;;1.25;1.05;;;;;;;10.34;91.51;101523.91;2062729;28;20043;-71
2022/10/14 02:23:41;;;;;;;1.58;1.35;;;;;;;10.33;92.00;101522.31;2062756;28;20121;-71
2022/10/14 02:24:46;;;;;;;1.25;1.10;;;;;;;10.34;91.36;101515.78;2070054;28;20133;-71
2022/10/14 02:25:51;;;;;;;1.35;1.17;;;;;;;10.35;91.53;101520.06;2071499;28;20058;-71
2022/10/14 02:26:56;;;;;;;1.45;1.20;;;;;;;10.34;92.21;101526.59;2077706;28;20056;-71
2022/10/14 02:28:03;;;;;;;1.20;0.95;;;;;;;10.35;91.79;101524.69;2068735;28;20521;-71
2022/10/14 02:29:05;;;;;;;1.00;0.90;;;;;;;10.36;91.71;101521.66;2067653;28;20529;-71
2022/10/14 02:30:09;;;;;;;1.35;1.10;;;;;;;10.36;92.06;101518.16;2070179;28;20095;-71
2022/10/14 02:31:15;;;;;;;1.60;1.27;;;;;;;10.37;92.17;101525.16;2071453;28;20057;-71
2022/10/14 02:32:21;;;;;;;1.70;1.30;;;;;;;10.34;91.93;101526.59;2078605;28;20060;-71
2022/10/14 02:33:32;;;;;;;1.27;1.08;;;;;;;10.34;91.82;101526.59;2076885;28;20436;-71
2022/10/14 02:34:39;;;;;;;0.85;0.75;;;;;;;10.33;92.43;101526.91;2077905;28;20723;-71
2022/10/14 02:35:47;;;;;;;0.98;0.75;;;;;;;10.34;91.80;101529.28;2076270;28;20054;-71
2022/10/14 02:36:53;;;;;;;1.30;1.00;;;;;;;10.38;92.83;101524.03;2077939;28;20565;-72
2022/10/14 02:37:58;;;;;;;1.55;1.20;;;;;;;10.39;92.16;101523.72;2076883;28;20060;-72
2022/10/14 02:39:04;;;;;;;1.08;0.98;;;;;;;10.42;92.63;101523.06;2071575;28;20517;-72
2022/10/14 02:40:10;;;;;;;1.10;0.90;;;;;;;10.44;92.27;101518.16;2077975;28;20445;-72
2022/10/14 02:41:18;;;;;;;1.10;0.93;;;;;;;10.46;91.64;101525.94;2078298;28;20537;-72
2022/10/14 02:42:25;;;;;;;1.10;0.98;;;;;;;10.46;92.12;101528.63;2069109;28;20034;-72
2022/10/14 02:43:31;;;;;;;1.30;1.10;;;;;;;10.44;91.79;101523.56;2063475;28;20134;-72
2022/10/14 02:44:33;;;;;;;1.20;1.02;;;;;;;10.44;91.89;101528.16;2068583;28;20884;-70
2022/10/14 02:45:41;;;;;;;1.30;1.02;;;;;;;10.43;91.90;101521.94;2078027;28;20128;-70
2022/10/14 02:46:49;;;;;;;1.60;1.20;;;;;;;10.44;91.83;101523.56;2076595;28;20412;-71
2022/10/14 02:47:55;;;;;;;1.30;1.10;;;;;;;10.44;92.17;101520.84;2077889;28;20057;-70
2022/10/14 02:49:00;;;;;;;0.80;0.80;;;;;;;10.43;92.44;101516.56;2077767;28;20061;-71
2022/10/14 02:50:03;;;;;;;1.27;1.05;;;;;;;10.45;92.22;101527.81;2070649;28;20062;-71
2022/10/14 02:51:06;;;;;;;0.98;0.82;;;;;;;10.47;91.92;101528.31;2068509;28;20057;-71
2022/10/14 02:52:09;;;;;;;0.60;0.60;;;;;;;10.48;92.67;101518.31;2079541;28;20088;-71
2022/10/14 02:53:15;;;;;;;1.10;1.00;;;;;;;10.49;91.83;101518.00;2067538;28;20061;-71
2022/10/14 02:54:21;;;;;;;1.08;0.88;;;;;;;10.50;91.52;101527.66;2071214;28;20398;-71
2022/10/14 02:55:23;;;;;;;0.82;0.77;;;;;;;10.52;91.95;101519.22;2078672;28;20049;-71
2022/10/14 02:56:27;;;;;;;1.00;0.80;;;;;;;10.51;91.87;101512.25;2079415;28;20049;-71
2022/10/14 02:57:29;;;;;;;1.00;0.90;;;;;;;10.55;91.48;101518.59;2079708;28;20483;-72
2022/10/14 02:58:33;;;;;;;1.17;1.00;;;;;;;10.55;91.76;101518.59;2078016;28;20468;-69
2022/10/14 02:59:35;;;;;;;0.80;0.80;;;;;;;10.54;91.26;101517.78;2069003;28;20050;-69
2022/10/14 03:00:43;;;;;;;1.40;1.10;;;;;;;10.55;91.96;101522.09;2070761;28;20538;-69
2022/10/14 03:01:46;;;;;;;1.15;0.90;;;;;;;10.54;91.75;101517.00;2078987;28;20188;-70
2022/10/14 03:02:50;;;;;;;1.25;1.05;;;;;;;10.55;91.18;101519.38;2071290;28;20053;-69
2022/10/14 03:03:53;;;;;;;0.50;0.50;;;;;;;10.56;91.72;101520.97;2069643;28;20065;-69
2022/10/14 03:04:59;;;;;;;1.10;0.90;;;;;;;10.56;91.61;101520.16;2059556;28;20045;-69
2022/10/14 03:06:03;;;;;;;0.70;0.70;;;;;;;10.55;91.38;101526.69;2061918;28;20579;-69
2022/10/14 03:07:07;;;;;;;1.00;0.90;;;;;;;10.53;91.38;101516.22;2071981;28;20786;-69
2022/10/14 03:08:15;;;;;;;0.85;0.80;;;;;;;10.53;91.92;101520.81;2070963;28;20542;-69
2022/10/14 03:09:19;;;;;;;1.10;0.98;;;;;;;10.52;91.53;101517.34;2062899;28;20268;-68
2022/10/14 03:10:23;;;;;;;1.40;1.10;;;;;;;10.52;91.62;101508.44;2062677;28;20061;-68
2022/10/14 03:11:26;;;;;;;1.10;1.00;;;;;;;10.53;91.67;101518.91;2062058;28;20425;-68
2022/10/14 03:12:35;;;;;;;1.48;1.20;;;;;;;10.50;91.31;101506.06;2069673;28;20103;-68
2022/10/14 03:13:38;;;;;;;1.30;1.00;;;;;;;10.51;91.04;101507.63;2062321;28;20046;-69
2022/10/14 03:14:41;;;;;;;1.30;1.00;;;;;;;10.48;91.06;101508.28;2055309;28;20124;-68
2022/10/14 03:15:49;;;;;;;0.80;0.80;;;;;;;10.49;91.62;101509.09;2069611;28;20046;-69
2022/10/14 03:16:52;;;;;;;1.10;1.00;;;;;;;10.49;91.02;101509.88;2072008;28;20167;-69
2022/10/14 03:17:59;;;;;;;1.40;1.10;;;;;;;10.49;91.24;101512.59;2075662;28;20112;-69
2022/10/14 03:19:10;;;;;;;1.10;0.90;;;;;;;10.46;91.34;101510.50;2064399;28;20077;-70
2022/10/14 03:20:19;;;;;;;0.70;0.70;;;;;;;10.47;91.83;101512.09;2050091;28;20195;-69
2022/10/14 03:21:25;;;;;;;1.30;1.08;;;;;;;10.48;91.11;101510.97;2056635;28;20054;-69
2022/10/14 03:22:29;;;;;;;1.40;1.10;;;;;;;10.49;91.72;101514.47;2060288;28;20046;-69
2022/10/14 03:23:31;;;;;;;1.33;1.13;;;;;;;10.48;91.55;101513.69;2066500;28;20046;-69
2022/10/14 03:24:34;;;;;;;0.70;0.70;;;;;;;10.50;91.27;101505.25;2074075;28;20592;-68
2022/10/14 03:25:59;;;;;;;1.63;1.20;;;;;;;10.46;91.07;101504.34;2063787;28;20465;-70
2022/10/14 03:27:13;;;;;;;1.20;1.00;;;;;;;10.47;90.91;101505.91;2066055;28;20050;-69
2022/10/14 03:28:16;;;;;;;1.15;0.90;;;;;;;10.48;91.62;101505.59;2064932;28;20412;-69
2022/10/14 03:29:45;;;;;;;1.30;1.10;;;;;;;10.45;91.19;101508.94;2072403;28;20049;-68
2022/10/14 03:30:53;;;;;;;1.17;0.98;;;;;;;10.46;91.19;101518.59;2077116;28;20476;-68
2022/10/14 03:32:19;;;;;;;2.20;1.75;;;;;;;10.43;91.45;101511.16;2073187;28;20103;-68
2022/10/14 03:33:41;;;;;;;1.55;1.33;;;;;;;10.39;91.17;101507.53;2078599;28;20613;-68
2022/10/14 03:34:46;;;;;;;1.90;1.55;;;;;;;10.38;91.88;101508.66;2070290;28;20513;-68
2022/10/14 03:35:56;;;;;;;1.90;1.60;;;;;;;10.38;91.43;101505.97;2063180;28;20058;-69
2022/10/14 03:37:14;;;;;;;2.10;1.77;;;;;;;10.37;91.35;101512.44;2078007;28;20680;-69
2022/10/14 03:38:22;;;;;;;1.95;1.60;;;;;;;10.36;91.63;101505.47;2070111;28;20229;-69
2022/10/14 03:39:26;;;;;;;2.08;1.70;;;;;;;10.34;92.08;101507.69;2054467;28;20051;-68
2022/10/14 03:40:35;;;;;;;2.15;1.80;;;;;;;10.32;92.10;101504.53;2064886;28;20113;-68
2022/10/14 03:41:42;;;;;;;1.67;1.38;;;;;;;10.32;91.94;101509.16;2077705;28;20041;-68
2022/10/14 03:42:46;;;;;;;1.60;1.30;;;;;;;10.32;92.13;101507.22;2073875;28;20049;-69
2022/10/14 03:43:50;;;;;;;1.77;1.30;;;;;;;10.32;92.71;101507.22;2063371;28;20065;-69
2022/10/14 03:44:53;;;;;;;1.80;1.52;;;;;;;10.33;92.22;101503.44;2061540;28;20054;-68
2022/10/14 03:46:01;;;;;;;1.50;1.30;;;;;;;10.31;92.65;101507.53;2069123;28;20417;-69
2022/10/14 03:47:03;;;;;;;1.25;0.95;;;;;;;10.30;92.84;101497.88;2074497;28;20053;-68
2022/10/14 03:48:08;;;;;;;1.50;1.17;;;;;;;10.31;92.93;101508.34;2071795;28;20446;-68
2022/10/14 03:49:13;;;;;;;1.30;1.10;;;;;;;10.31;92.61;101505.66;2080184;28;20084;-69
2022/10/14 03:50:16;;;;;;;1.02;0.80;;;;;;;10.34;92.72;101506.91;2080183;28;20046;-68
2022/10/14 03:51:27;;;;;;;1.50;1.25;;;;;;;10.35;92.80;101508.50;2070490;28;20050;-69
2022/10/14 03:52:41;;;;;;;1.25;1.00;;;;;;;10.36;93.09;101510.06;2064898;28;20185;-69
2022/10/14 03:54:01;;;;;;;1.30;1.10;;;;;;;10.34;93.15;101510.41;2064136;28;20077;-69
2022/10/14 03:55:05;;;;;;;1.00;0.90;;;;;;;10.39;92.65;101504.03;2063659;28;20509;-69
2022/10/14 03:56:09;;;;;;;1.05;0.95;;;;;;;10.41;93.01;101512.59;2064088;28;20053;-69
2022/10/14 03:57:11;;;;;;;0.95;0.85;;;;;;;10.42;92.54;101509.59;2068619;28;20104;-69
2022/10/14 03:58:20;;;;;;;1.77;1.48;;;;;;;10.39;91.87;101510.22;2064709;28;20058;-69
2022/10/14 03:59:27;;;;;;;1.20;1.05;;;;;;;10.39;92.58;101499.44;2071109;28;20050;-68
2022/10/14 04:00:31;;;;;;;1.00;0.90;;;;;;;10.40;92.28;101511.81;2076072;28;20072;-68
2022/10/14 04:01:48;;;;;;;1.50;1.30;;;;;;;10.38;92.20;101508.66;2061055;28;20062;-69
2022/10/14 04:02:57;;;;;;;1.42;1.20;;;;;;;10.38;92.78;101508.66;2063910;28;20050;-70
2022/10/14 04:04:12;;;;;;;1.48;1.20;;;;;;;10.38;92.64;101503.25;2071187;28;20121;-69
2022/10/14 04:05:16;;;;;;;1.55;1.25;;;;;;;10.40;92.38;101501.00;2068966;28;20050;-69
2022/10/14 04:06:20;;;;;;;1.60;1.30;;;;;;;10.39;92.89;101504.03;2070353;28;20089;-69
2022/10/14 04:07:32;;;;;;;1.13;1.00;;;;;;;10.40;92.32;101502.94;2064047;28;20147;-70
2022/10/14 04:08:35;;;;;;;1.48;1.27;;;;;;;10.40;92.29;101506.41;2064065;28;20506;-69
2022/10/14 04:09:50;;;;;;;1.50;1.20;;;;;;;10.37;92.18;101496.25;2071559;28;20061;-69
2022/10/14 04:10:53;;;;;;;1.50;1.15;;;;;;;10.39;92.58;101494.03;2071270;28;20521;-70
2022/10/14 04:11:57;;;;;;;1.42;1.23;;;;;;;10.41;92.28;101496.41;2070815;28;20061;-69
2022/10/14 04:13:19;;;;;;;1.00;0.90;;;;;;;10.38;92.78;101492.47;2078316;28;20611;-70
2022/10/14 04:14:23;;;;;;;1.30;1.10;;;;;;;10.41;92.38;101486.41;2079240;28;20053;-70
2022/10/14 04:15:25;;;;;;;1.40;1.20;;;;;;;10.42;92.45;101482.59;2062827;28;20421;-69
2022/10/14 04:16:58;;;;;;;1.30;1.10;;;;;;;10.39;93.43;101485.94;2061956;28;20061;-69
2022/10/14 04:18:01;;;;;;;1.10;1.00;;;;;;;10.41;93.33;101486.41;2078053;28;20101;-69
2022/10/14 04:19:06;;;;;;;0.82;0.82;;;;;;;10.44;93.31;101496.56;2078326;28;20061;-69
2022/10/14 04:20:09;;;;;;;1.27;1.13;;;;;;;10.44;92.47;101483.06;2078686;28;20092;-69
2022/10/14 04:21:12;;;;;;;1.25;1.15;;;;;;;10.48;93.55;101488.63;2071832;28;20897;-68
2022/10/14 04:22:21;;;;;;;1.35;1.25;;;;;;;10.46;92.82;101486.22;2071234;28;20042;-69
2022/10/14 04:23:31;;;;;;;1.25;1.00;;;;;;;10.48;92.83;101488.63;2072096;28;20053;-68
2022/10/14 04:24:39;;;;;;;1.10;1.00;;;;;;;10.47;92.87;101490.50;2078430;28;20049;-68
2022/10/14 04:25:43;;;;;;;1.30;1.20;;;;;;;10.48;93.22;101486.69;2079117;28;20057;-68
2022/10/14 04:26:49;;;;;;;1.40;1.17;;;;;;;10.50;93.10;101489.88;2070991;28;20046;-68
2022/10/14 04:28:00;;;;;;;1.10;1.00;;;;;;;10.52;93.66;101484.94;2063701;28;20137;-69
2022/10/14 04:29:13;;;;;;;1.35;1.15;;;;;;;10.51;93.09;101491.44;2061943;28;20899;-69
2022/10/14 04:30:27;;;;;;;1.00;0.90;;;;;;;10.51;93.04;101485.25;2060431;28;20042;-69
2022/10/14 04:31:29;;;;;;;1.10;1.00;;;;;;;10.54;93.45;101479.22;2069067;28;20152;-70
2022/10/14 04:32:36;;;;;;;0.77;0.77;;;;;;;10.55;93.89;101487.00;2070000;28;20519;-69
2022/10/14 04:33:40;;;;;;;1.23;1.13;;;;;;;10.56;93.31;101483.16;2063620;28;20072;-69
2022/10/14 04:34:53;;;;;;;0.82;0.82;;;;;;;10.56;93.59;101475.06;2070647;28;20050;-69
2022/10/14 04:35:59;;;;;;;1.02;0.93;;;;;;;10.57;93.30;101473.16;2067761;28;20132;-69
2022/10/14 04:37:08;;;;;;;1.40;1.10;;;;;;;10.56;92.88;101479.66;2062917;28;20054;-69
2022/10/14 04:38:39;;;;;;;1.23;1.10;;;;;;;10.51;94.08;101475.25;2059808;28;20047;-69
2022/10/14 04:39:44;;;;;;;1.08;0.90;;;;;;;10.53;93.03;101477.63;2071016;28;20050;-69
2022/10/14 04:40:47;;;;;;;1.40;1.20;;;;;;;10.54;93.08;101473.81;2071652;28;20153;-69
2022/10/14 04:41:49;;;;;;;1.15;1.00;;;;;;;10.56;92.90;101471.56;2069452;28;20456;-69
2022/10/14 04:42:56;;;;;;;1.23;1.08;;;;;;;10.55;93.64;101465.38;2062739;28;20046;-69
2022/10/14 04:44:04;;;;;;;;;;;;;;;10.40;93.03;101467.84;2079516;28;20057;-69
2022/10/14 04:45:15;;;;;;;1.60;1.23;;;;;;;10.45;93.60;101465.75;2063112;28;19933;-69
2022/10/14 04:46:23;;;;;;;1.65;1.30;;;;;;;10.46;93.53;101461.91;2055110;28;20552;-69
2022/10/14 04:47:26;;;;;;;1.33;1.20;;;;;;;10.48;93.80;101456.22;2070589;28;20054;-69
2022/10/14 04:48:33;;;;;;;1.30;1.10;;;;;;;10.49;93.08;101455.09;2065361;28;20599;-70
2022/10/14 04:49:40;;;;;;;1.50;1.30;;;;;;;10.48;92.99;101459.69;2071641;28;20537;-69
2022/10/14 04:50:50;;;;;;;1.70;1.30;;;;;;;10.45;93.58;101460.34;2070348;28;20046;-69
2022/10/14 04:52:06;;;;;;;1.23;1.00;;;;;;;10.42;93.67;101463.69;2061438;28;20123;-70
2022/10/14 04:53:15;;;;;;;1.20;1.10;;;;;;;10.43;93.44;101456.41;2058796;28;20561;-69
2022/10/14 04:54:37;;;;;;;1.30;1.20;;;;;;;10.40;92.92;101452.41;2065847;28;20565;-70
2022/10/14 04:55:39;;;;;;;1.30;1.20;;;;;;;10.41;93.61;101442.41;2069443;28;20145;-69
2022/10/14 04:56:42;;;;;;;1.30;1.20;;;;;;;10.41;93.75;101451.31;2070839;28;20053;-69
2022/10/14 04:57:45;;;;;;;0.75;0.75;;;;;;;10.40;92.99;101441.63;2070043;28;20511;-69
2022/10/14 04:58:50;;;;;;;1.30;1.20;;;;;;;10.42;93.40;101444.00;2071497;28;20129;-69
2022/10/14 04:59:52;;;;;;;1.60;1.30;;;;;;;10.41;92.80;101443.22;2069820;28;20107;-69
2022/10/14 05:01:14;;;;;;;;;;;;;;;10.22;93.64;101440.13;2071084;28;20056;-69
2022/10/14 05:02:16;;;;;;;1.50;1.20;;;;;;;10.30;93.56;101438.50;2074682;28;19929;-69
2022/10/14 05:03:31;;;;;;;1.40;1.30;;;;;;;10.32;94.10;101437.03;2077435;28;20042;-69
2022/10/14 05:04:33;;;;;;;1.15;1.05;;;;;;;10.34;93.42;101439.41;2070993;28;20622;-69
2022/10/14 05:05:36;;;;;;;1.70;1.40;;;;;;;10.34;93.61;101440.22;2071730;28;20045;-69
2022/10/14 05:06:40;;;;;;;1.95;1.60;;;;;;;10.32;93.61;101437.03;2078372;28;20087;-69
2022/10/14 05:07:45;;;;;;;1.70;1.45;;;;;;;10.31;94.14;101440.88;2078522;28;20057;-69
2022/10/14 05:09:03;;;;;;;1.63;1.50;;;;;;;10.28;93.27;101429.94;2063124;28;20050;-69
2022/10/14 05:10:09;;;;;;;1.50;1.30;;;;;;;10.28;93.42;101438.81;2063227;28;20089;-69
2022/10/14 05:11:15;;;;;;;1.20;1.10;;;;;;;10.26;93.56;101432.94;2069269;28;20473;-69
2022/10/14 05:12:25;;;;;;;1.50;1.20;;;;;;;10.26;94.04;101438.34;2064081;28;20105;-69
2022/10/14 05:13:33;;;;;;;1.30;1.20;;;;;;;10.26;94.44;101430.25;2065364;28;20406;-69
2022/10/14 05:14:39;;;;;;;1.27;1.10;;;;;;;10.24;93.31;101424.38;2064452;28;20087;-69
2022/10/14 05:15:50;;;;;;;1.70;1.60;;;;;;;10.20;94.50;101434.25;2065575;28;20057;-69
2022/10/14 05:16:52;;;;;;;2.20;2.00;;;;;;;10.20;93.95;101426.16;2064727;28;20050;-69
2022/10/14 05:18:02;;;;;;;1.92;1.73;;;;;;;10.15;94.33;101426.31;2070382;28;20085;-69
2022/10/14 05:19:21;;;;;;;2.22;2.03;;;;;;;10.11;94.22;101427.28;2068685;28;20042;-69
2022/10/14 05:20:25;;;;;;;1.55;1.30;;;;;;;10.10;94.18;101423.03;2070855;28;20571;-69